createdAt,value
2023-01-10T00:00:40.503Z,98.30
2023-01-10T00:02:44.518Z,98.53
2023-01-10T00:04:47.642Z,98.90
2023-01-10T00:06:52.111Z,98.58
2023-01-10T00:08:55.091Z,97.76
2023-01-10T00:10:58.150Z,98.09
2023-01-10T00:13:18.753Z,98.22
2023-01-10T00:15:21.867Z,97.77
2023-01-10T00:17:24.891Z,98.64
2023-01-10T00:19:27.945Z,97.73
2023-01-10T00:21:32.069Z,97.62
2023-01-10T00:23:36.861Z,98.19
2023-01-10T00:25:39.908Z,96.78
2023-01-10T00:27:42.866Z,96.85
2023-01-10T00:29:46.929Z,97.37
2023-01-10T00:31:49.981Z,96.77
2023-01-10T00:33:53.004Z,98.02
2023-01-10T00:35:56.089Z,95.88
2023-01-10T00:38:01.995Z,96.02
2023-01-10T00:40:09.442Z,96.66
2023-01-10T00:42:30.439Z,97.23
2023-01-10T00:44:33.414Z,96.19
2023-01-10T00:46:36.472Z,95.50
2023-01-10T00:48:39.763Z,96.42
2023-01-10T00:50:43.205Z,96.23
2023-01-10T00:52:46.232Z,95.71
2023-01-10T00:54:49.239Z,95.55
2023-01-10T00:56:53.631Z,96.20
2023-01-10T00:58:56.703Z,96.59
2023-01-10T01:00:59.753Z,96.70
2023-01-10T01:03:03.881Z,95.28
2023-01-10T01:05:08.185Z,95.26
2023-01-10T01:07:11.197Z,95.50
2023-01-10T01:09:14.597Z,96.23
2023-01-10T01:11:17.643Z,95.38
2023-01-10T01:13:22.961Z,95.64
2023-01-10T01:15:26.846Z,96.95
2023-01-10T01:17:29.897Z,95.37
2023-01-10T01:19:32.874Z,97.22
2023-01-10T01:21:35.917Z,95.73
2023-01-10T01:23:39.106Z,96.11
2023-01-10T01:25:42.456Z,95.98
2023-01-10T01:27:45.520Z,96.15
2023-01-10T01:29:49.859Z,96.78
2023-01-10T01:31:52.924Z,96.75
2023-01-10T01:33:56.032Z,97.35
2023-01-10T01:35:59.091Z,96.06
2023-01-10T01:38:02.184Z,95.81
2023-01-10T01:40:06.298Z,96.87
2023-01-10T01:42:22.063Z,96.68
2023-01-10T01:44:25.929Z,97.18
2023-01-10T01:46:30.549Z,96.47
2023-01-10T01:48:36.865Z,97.31
2023-01-10T01:50:43.023Z,97.14
2023-01-10T01:52:46.683Z,96.66
2023-01-10T01:54:49.928Z,97.03
2023-01-10T01:56:55.504Z,97.51
2023-01-10T01:59:00.781Z,97.69
2023-01-10T02:01:04.030Z,97.56
2023-01-10T02:03:08.874Z,97.41
2023-01-10T02:05:14.237Z,98.38
2023-01-10T02:07:17.520Z,96.76
2023-01-10T02:09:25.213Z,97.87
2023-01-10T02:11:28.297Z,98.21
2023-01-10T02:13:31.644Z,97.81
2023-01-10T02:15:35.008Z,97.33
2023-01-10T02:17:38.497Z,97.93
2023-01-10T02:19:51.618Z,98.38
2023-01-10T02:22:42.164Z,96.96
2023-01-10T02:25:35.815Z,97.10
2023-01-10T02:27:44.399Z,97.39
2023-01-10T02:30:32.563Z,96.90
2023-01-10T02:32:53.667Z,96.55
2023-01-10T02:35:11.411Z,95.61
2023-01-10T02:37:18.066Z,96.61
2023-01-10T02:39:25.476Z,95.60
2023-01-10T02:41:32.528Z,96.54
2023-01-10T02:43:37.034Z,96.73
2023-01-10T02:45:43.055Z,97.10
2023-01-10T02:47:47.395Z,97.06
2023-01-10T02:49:52.636Z,97.29
2023-01-10T02:51:56.096Z,97.93
2023-01-10T02:54:01.965Z,98.09
2023-01-10T02:56:26.314Z,98.53
2023-01-10T02:58:41.322Z,98.71
2023-01-10T03:00:47.271Z,97.76
2023-01-10T03:03:03.061Z,97.81
2023-01-10T03:05:13.931Z,98.84
2023-01-10T03:07:21.111Z,98.83
2023-01-10T03:09:28.562Z,98.68
2023-01-10T03:11:43.097Z,98.14
2023-01-10T03:13:49.802Z,98.05
2023-01-10T03:15:55.018Z,99.34
2023-01-10T03:18:01.002Z,98.68
2023-01-10T03:20:06.447Z,99.30
2023-01-10T03:22:11.223Z,98.53
2023-01-10T03:24:18.771Z,98.01
2023-01-10T03:26:28.290Z,97.83
2023-01-10T03:28:33.562Z,97.60
2023-01-10T03:30:40.683Z,99.13
2023-01-10T03:32:44.112Z,98.67
2023-01-10T03:34:48.770Z,97.74
2023-01-10T03:36:55.832Z,98.27
2023-01-10T03:39:04.053Z,98.86
2023-01-10T03:41:10.935Z,97.39
2023-01-10T03:43:35.741Z,97.20
2023-01-10T03:45:42.938Z,98.13
2023-01-10T03:47:47.954Z,96.68
2023-01-10T03:49:56.869Z,96.22
2023-01-10T03:52:00.104Z,96.01
2023-01-10T03:54:03.659Z,96.09
2023-01-10T03:56:07.547Z,96.49
2023-01-10T03:58:10.519Z,96.92
2023-01-10T04:00:15.159Z,96.58
2023-01-10T04:02:18.155Z,95.49
2023-01-10T04:04:21.359Z,96.85
2023-01-10T04:06:25.745Z,96.31
2023-01-10T04:08:28.889Z,95.87
2023-01-10T04:10:31.952Z,95.32
2023-01-10T04:12:34.983Z,94.66
2023-01-10T04:14:38.101Z,94.29
2023-01-10T04:16:41.089Z,94.68
2023-01-10T04:18:44.112Z,95.67
2023-01-10T04:20:47.116Z,95.03
2023-01-10T04:22:51.465Z,93.70
2023-01-10T04:24:54.580Z,95.59
2023-01-10T04:26:57.543Z,94.48
2023-01-10T04:29:00.635Z,95.82
2023-01-10T04:31:03.768Z,95.08
2023-01-10T04:33:07.323Z,95.43
2023-01-10T04:35:10.877Z,94.37
2023-01-10T04:37:14.165Z,94.54
2023-01-10T04:39:18.496Z,95.66
2023-01-10T04:41:21.530Z,95.54
2023-01-10T04:43:25.245Z,95.27
2023-01-10T04:45:28.309Z,95.99
2023-01-10T04:47:31.330Z,95.30
2023-01-10T04:49:34.314Z,95.63
2023-01-10T04:51:37.350Z,95.55
2023-01-10T04:53:40.418Z,95.57
2023-01-10T04:55:44.826Z,95.43
2023-01-10T04:57:47.810Z,95.25
2023-01-10T04:59:50.898Z,94.65
2023-01-10T05:01:54.143Z,95.31
2023-01-10T05:03:57.657Z,94.64
2023-01-10T05:06:00.817Z,93.98
2023-01-10T05:08:03.964Z,94.91
2023-01-10T05:10:08.075Z,94.62
2023-01-10T05:12:12.484Z,95.24
2023-01-10T05:14:15.487Z,95.43
2023-01-10T05:16:19.005Z,95.30
2023-01-10T05:18:22.041Z,94.46
2023-01-10T05:20:25.073Z,94.70
2023-01-10T05:22:28.192Z,94.79
2023-01-10T05:24:31.185Z,94.84
2023-01-10T05:26:34.323Z,94.34
2023-01-10T05:28:39.268Z,94.38
2023-01-10T05:30:42.384Z,95.21
2023-01-10T05:32:45.392Z,96.02
2023-01-10T05:34:48.489Z,95.38
2023-01-10T05:36:51.552Z,95.52
2023-01-10T05:38:54.722Z,95.66
2023-01-10T05:40:59.063Z,94.17
2023-01-10T05:43:02.131Z,94.98
2023-01-10T05:45:07.361Z,94.18
2023-01-10T05:47:10.344Z,94.49
2023-01-10T05:49:13.340Z,94.10
2023-01-10T05:51:16.429Z,94.31
2023-01-10T05:53:19.907Z,94.72
2023-01-10T05:55:22.995Z,94.72
2023-01-10T05:57:26.037Z,94.40
2023-01-10T05:59:29.073Z,94.67
2023-01-10T06:01:33.520Z,94.31
2023-01-10T06:03:36.684Z,95.66
2023-01-10T06:05:39.709Z,94.42
2023-01-10T06:07:42.956Z,95.06
2023-01-10T06:09:46.721Z,95.75
2023-01-10T06:11:49.706Z,93.97
2023-01-10T06:13:55.705Z,94.92
2023-01-10T06:15:58.766Z,95.47
2023-01-10T06:18:03.516Z,94.37
2023-01-10T06:20:07.541Z,95.02
2023-01-10T06:22:10.538Z,94.09
2023-01-10T06:24:13.517Z,94.16
2023-01-10T06:26:16.839Z,95.19
2023-01-10T06:28:19.895Z,94.81
2023-01-10T06:30:23.022Z,93.88
2023-01-10T06:32:26.260Z,95.15
2023-01-10T06:34:30.767Z,94.19
2023-01-10T06:36:33.822Z,94.65
2023-01-10T06:38:36.893Z,94.65
2023-01-10T06:40:39.914Z,93.91
2023-01-10T06:42:43.004Z,94.32
2023-01-10T06:44:46.745Z,93.66
2023-01-10T06:46:49.903Z,94.59
2023-01-10T06:48:53.129Z,94.27
2023-01-10T06:50:57.504Z,93.31
2023-01-10T06:53:01.531Z,93.64
2023-01-10T06:55:04.831Z,92.80
2023-01-10T06:57:08.777Z,94.37
2023-01-10T06:59:11.922Z,92.72
2023-01-10T07:01:16.735Z,93.71
2023-01-10T07:03:19.840Z,92.75
2023-01-10T07:05:23.025Z,92.67
2023-01-10T07:07:27.474Z,93.02
2023-01-10T07:09:30.634Z,92.92
2023-01-10T07:11:34.287Z,93.32
2023-01-10T07:13:37.632Z,92.95
2023-01-10T07:15:40.641Z,93.15
2023-01-10T07:17:43.591Z,92.65
2023-01-10T07:19:46.778Z,91.66
2023-01-10T07:21:49.821Z,92.38
2023-01-10T07:23:54.147Z,91.16
2023-01-10T07:25:57.267Z,91.48
2023-01-10T07:28:00.401Z,92.03
2023-01-10T07:30:05.496Z,92.01
2023-01-10T07:32:08.526Z,92.34
2023-01-10T07:34:11.598Z,91.86
2023-01-10T07:36:14.730Z,92.08
2023-01-10T07:38:17.757Z,90.47
2023-01-10T07:40:22.267Z,90.74
2023-01-10T07:42:25.652Z,90.34
2023-01-10T07:44:28.830Z,90.35
2023-01-10T07:46:32.032Z,90.45
2023-01-10T07:48:35.127Z,90.69
2023-01-10T07:50:38.509Z,91.60
2023-01-10T07:52:41.504Z,91.39
2023-01-10T07:54:44.554Z,92.36
2023-01-10T07:56:50.140Z,91.11
2023-01-10T07:58:53.140Z,91.76
2023-01-10T08:00:59.093Z,90.31
2023-01-10T08:03:02.463Z,92.04
2023-01-10T08:05:06.210Z,91.88
2023-01-10T08:07:09.240Z,89.94
2023-01-10T08:09:12.429Z,89.47
2023-01-10T08:11:15.434Z,90.41
2023-01-10T08:13:20.202Z,90.15
2023-01-10T08:15:23.776Z,91.37
2023-01-10T08:17:33.879Z,89.88
2023-01-10T08:19:36.875Z,91.54
2023-01-10T08:21:39.895Z,90.59
2023-01-10T08:23:42.991Z,91.36
2023-01-10T08:25:46.005Z,91.18
2023-01-10T08:27:48.998Z,89.75
2023-01-10T08:29:53.539Z,90.57
2023-01-10T08:32:00.417Z,90.24
2023-01-10T08:34:03.808Z,91.14
2023-01-10T08:36:07.427Z,90.48
2023-01-10T08:38:10.804Z,89.65
2023-01-10T08:40:14.274Z,89.90
2023-01-10T08:42:18.712Z,90.67
2023-01-10T08:44:21.685Z,90.07
2023-01-10T08:46:26.201Z,90.34
2023-01-10T08:48:29.421Z,89.54
2023-01-10T08:50:33.075Z,91.12
2023-01-10T08:52:36.040Z,90.07
2023-01-10T08:54:39.052Z,89.31
2023-01-10T08:56:42.220Z,89.48
2023-01-10T08:58:45.260Z,91.09
2023-01-10T09:00:49.493Z,90.21
2023-01-10T09:02:53.991Z,90.23
2023-01-10T09:04:57.083Z,90.11
2023-01-10T09:07:00.133Z,89.61
2023-01-10T09:09:03.316Z,91.24
2023-01-10T09:11:07.047Z,89.75
2023-01-10T09:13:10.170Z,90.76
2023-01-10T09:15:13.366Z,91.63
2023-01-10T09:17:16.443Z,91.54
2023-01-10T09:19:20.956Z,91.67
2023-01-10T09:21:24.019Z,90.33
2023-01-10T09:23:27.236Z,91.38
2023-01-10T09:25:30.342Z,91.63
2023-01-10T09:27:33.538Z,91.49
2023-01-10T09:29:36.575Z,92.00
2023-01-10T09:31:39.674Z,92.11
2023-01-10T09:33:47.157Z,90.95
2023-01-10T09:35:51.876Z,91.80
2023-01-10T09:37:55.694Z,91.04
2023-01-10T09:39:58.659Z,91.48
2023-01-10T09:42:19.594Z,91.37
2023-01-10T09:44:29.846Z,90.96
2023-01-10T09:46:40.877Z,90.08
2023-01-10T09:48:50.938Z,91.04
2023-01-10T09:51:10.214Z,90.66
2023-01-10T09:53:15.189Z,89.86
2023-01-10T09:55:21.368Z,89.72
2023-01-10T09:57:24.779Z,88.98
2023-01-10T09:59:32.021Z,89.91
2023-01-10T10:01:37.151Z,89.30
2023-01-10T10:03:46.282Z,90.71
2023-01-10T10:05:50.518Z,88.93
2023-01-10T10:07:57.422Z,89.60
2023-01-10T10:10:00.544Z,89.34
2023-01-10T10:12:15.594Z,89.72
2023-01-10T10:14:31.071Z,88.66
2023-01-10T10:16:43.090Z,89.81
2023-01-10T10:18:53.390Z,89.63
2023-01-10T10:21:03.052Z,89.96
2023-01-10T10:23:17.177Z,90.31
2023-01-10T10:25:32.092Z,90.90
2023-01-10T10:27:37.674Z,90.87
2023-01-10T10:29:59.967Z,91.14
2023-01-10T10:32:13.693Z,92.05
2023-01-10T10:34:23.446Z,90.98
2023-01-10T10:36:39.387Z,92.13
2023-01-10T10:38:46.264Z,92.33
2023-01-10T10:40:50.123Z,92.38
2023-01-10T10:42:55.006Z,91.54
2023-01-10T10:45:01.269Z,90.95
2023-01-10T10:47:05.422Z,90.53
2023-01-10T10:49:18.951Z,91.90
2023-01-10T10:51:27.912Z,91.15
2023-01-10T10:53:32.604Z,90.60
2023-01-10T10:55:38.040Z,88.30
2023-01-10T10:57:55.358Z,89.38
2023-01-10T11:00:04.658Z,90.66
2023-01-10T11:02:22.620Z,90.69
2023-01-10T11:04:26.049Z,89.69
2023-01-10T11:06:34.063Z,89.15
2023-01-10T11:08:38.667Z,90.50
2023-01-10T11:10:44.498Z,90.23
2023-01-10T11:12:51.050Z,91.40
2023-01-10T11:14:54.140Z,93.05
2023-01-10T11:17:21.774Z,91.86
2023-01-10T11:19:26.188Z,93.43
2023-01-10T11:21:29.384Z,93.85
2023-01-10T11:23:42.186Z,92.94
2023-01-10T11:25:48.797Z,92.56
2023-01-10T11:27:53.385Z,90.87
2023-01-10T11:29:58.475Z,90.97
2023-01-10T11:32:09.833Z,91.78
2023-01-10T11:34:21.896Z,90.93
2023-01-10T11:36:25.045Z,91.92
2023-01-10T11:38:30.357Z,92.08
2023-01-10T11:40:34.163Z,93.09
2023-01-10T11:42:38.767Z,93.06
2023-01-10T11:44:41.872Z,92.80
2023-01-10T11:46:45.263Z,91.36
2023-01-10T11:49:08.417Z,91.74
2023-01-10T11:51:20.313Z,93.15
2023-01-10T11:53:33.633Z,92.54
2023-01-10T11:55:39.036Z,90.91
2023-01-10T11:57:43.449Z,91.41
2023-01-10T11:59:52.667Z,91.67
2023-01-10T12:01:59.201Z,91.16
2023-01-10T12:04:02.517Z,90.43
2023-01-10T12:06:08.383Z,89.78
2023-01-10T12:08:26.883Z,89.33
2023-01-10T12:10:30.067Z,89.04
2023-01-10T12:12:34.771Z,91.92
2023-01-10T12:14:39.140Z,89.27
2023-01-10T12:16:42.263Z,90.89
2023-01-10T12:18:45.640Z,90.96
2023-01-10T12:20:51.106Z,90.17
2023-01-10T12:22:58.414Z,90.72
2023-01-10T12:25:03.955Z,87.31
2023-01-10T12:27:07.583Z,88.15
2023-01-10T12:29:16.037Z,88.44
2023-01-10T12:31:22.891Z,87.19
2023-01-10T12:33:29.165Z,85.28
2023-01-10T12:35:39.562Z,84.07
2023-01-10T12:37:47.603Z,84.81
2023-01-10T12:39:54.569Z,84.89
2023-01-10T12:42:29.111Z,83.30
2023-01-10T12:44:36.654Z,83.03
2023-01-10T12:47:05.879Z,82.26
2023-01-10T12:49:17.590Z,82.33
2023-01-10T12:51:23.373Z,83.58
2023-01-10T12:53:32.017Z,82.98
2023-01-10T12:55:40.704Z,83.31
2023-01-10T12:57:44.805Z,82.79
2023-01-10T12:59:48.045Z,84.07
2023-01-10T13:01:54.951Z,84.76
2023-01-10T13:04:02.838Z,85.58
2023-01-10T13:06:06.391Z,84.55
2023-01-10T13:08:13.134Z,84.61
2023-01-10T13:10:19.897Z,85.66
2023-01-10T13:12:25.310Z,86.15
2023-01-10T13:14:32.033Z,86.66
2023-01-10T13:16:42.129Z,86.19
2023-01-10T13:19:05.586Z,85.59
2023-01-10T13:21:13.331Z,87.74
2023-01-10T13:23:30.324Z,86.37
2023-01-10T13:25:35.952Z,86.82
2023-01-10T13:27:39.071Z,86.78
2023-01-10T13:29:42.965Z,87.73
2023-01-10T13:31:47.540Z,87.52
2023-01-10T13:33:55.059Z,87.27
2023-01-10T13:36:09.314Z,86.68
2023-01-10T13:38:19.313Z,85.95
2023-01-10T13:40:25.993Z,86.69
2023-01-10T13:42:51.118Z,85.62
2023-01-10T13:45:17.172Z,85.71
2023-01-10T13:48:03.401Z,84.38
2023-01-10T13:50:42.407Z,84.88
2023-01-10T13:52:46.875Z,85.76
2023-01-10T13:54:57.083Z,84.90
2023-01-10T13:57:00.172Z,85.53
2023-01-10T13:59:22.302Z,86.32
2023-01-10T14:01:44.929Z,86.27
2023-01-10T14:03:53.321Z,86.06
2023-01-10T14:05:56.455Z,85.90
2023-01-10T14:08:02.386Z,86.04
2023-01-10T14:10:07.792Z,84.41
2023-01-10T14:12:23.744Z,85.59
2023-01-10T14:14:30.010Z,84.74
2023-01-10T14:16:38.627Z,85.63
2023-01-10T14:18:42.940Z,85.11
2023-01-10T14:20:46.109Z,85.33
2023-01-10T14:23:02.668Z,84.41
2023-01-10T14:25:08.089Z,83.65
2023-01-10T14:27:15.316Z,83.07
2023-01-10T14:29:19.095Z,83.83
2023-01-10T14:31:25.348Z,82.52
2023-01-10T14:33:29.195Z,82.32
2023-01-10T14:35:37.737Z,81.91
2023-01-10T14:37:43.642Z,81.86
2023-01-10T14:39:49.154Z,80.83
2023-01-10T14:41:54.569Z,79.60
2023-01-10T14:44:02.483Z,79.63
2023-01-10T14:46:07.401Z,77.53
2023-01-10T14:48:27.805Z,77.73
2023-01-10T14:50:32.715Z,79.25
2023-01-10T14:52:36.035Z,79.16
2023-01-10T14:54:39.323Z,78.97
2023-01-10T14:56:45.230Z,77.64
2023-01-10T14:58:48.322Z,77.69
2023-01-10T15:00:51.780Z,77.46
2023-01-10T15:02:55.302Z,78.28
2023-01-10T15:05:00.428Z,77.96
2023-01-10T15:07:11.465Z,78.19
2023-01-10T15:09:15.800Z,78.18
2023-01-10T15:11:19.029Z,77.46
2023-01-10T15:13:28.158Z,78.79
2023-01-10T15:15:32.953Z,77.44
2023-01-10T15:17:36.938Z,77.58
2023-01-10T15:19:41.079Z,78.54
2023-01-10T15:21:45.097Z,78.65
2023-01-10T15:23:48.244Z,79.04
2023-01-10T15:25:56.831Z,79.89
2023-01-10T15:28:02.765Z,79.58
2023-01-10T15:30:11.314Z,78.53
2023-01-10T15:32:24.274Z,79.38
2023-01-10T15:34:30.132Z,78.21
2023-01-10T15:36:33.205Z,79.27
2023-01-10T15:38:38.602Z,78.94
2023-01-10T15:40:42.317Z,79.00
2023-01-10T15:42:45.334Z,79.88
2023-01-10T15:44:52.512Z,78.80
2023-01-10T15:46:57.930Z,79.60
2023-01-10T15:49:02.911Z,78.68
2023-01-10T15:51:14.343Z,78.66
2023-01-10T15:53:17.422Z,77.30
2023-01-10T15:55:41.706Z,78.20
2023-01-10T15:57:44.856Z,77.99
2023-01-10T15:59:51.381Z,77.56
2023-01-10T16:01:55.704Z,76.54
2023-01-10T16:04:02.066Z,77.04
2023-01-10T16:06:09.697Z,76.31
2023-01-10T16:08:13.263Z,77.21
2023-01-10T16:10:21.407Z,77.24
2023-01-10T16:12:46.943Z,76.17
2023-01-10T16:14:50.073Z,75.95
2023-01-10T16:16:53.177Z,77.52
2023-01-10T16:18:56.191Z,76.07
2023-01-10T16:21:02.169Z,77.48
2023-01-10T16:23:08.786Z,76.95
2023-01-10T16:25:16.806Z,76.86
2023-01-10T16:27:19.844Z,77.09
2023-01-10T16:29:23.049Z,76.73
2023-01-10T16:31:26.355Z,76.33
2023-01-10T16:33:29.508Z,77.37
2023-01-10T16:35:32.505Z,76.64
2023-01-10T16:37:36.964Z,77.25
2023-01-10T16:39:39.973Z,77.05
2023-01-10T16:42:00.951Z,77.91
2023-01-10T16:44:04.031Z,76.96
2023-01-10T16:46:07.209Z,77.60
2023-01-10T16:48:10.804Z,76.27
2023-01-10T16:50:13.893Z,77.28
2023-01-10T16:52:16.972Z,78.03
2023-01-10T16:54:23.034Z,77.44
2023-01-10T16:56:28.501Z,78.14
2023-01-10T16:58:31.607Z,79.11
2023-01-10T17:00:35.199Z,79.76
2023-01-10T17:02:39.015Z,80.03
2023-01-10T17:04:42.090Z,80.51
2023-01-10T17:06:45.063Z,79.83
2023-01-10T17:08:49.495Z,79.42
2023-01-10T17:10:56.332Z,80.80
2023-01-10T17:12:59.643Z,80.41
2023-01-10T17:15:04.007Z,79.95
2023-01-10T17:17:07.089Z,80.10
2023-01-10T17:19:10.037Z,80.80
2023-01-10T17:21:16.991Z,80.32
2023-01-10T17:23:20.010Z,80.85
2023-01-10T17:25:23.073Z,80.89
2023-01-10T17:27:27.466Z,80.96
2023-01-10T17:29:31.684Z,80.67
2023-01-10T17:31:34.828Z,80.84
2023-01-10T17:33:37.856Z,80.37
2023-01-10T17:35:41.487Z,79.56
2023-01-10T17:37:44.468Z,80.41
2023-01-10T17:39:47.492Z,80.64
2023-01-10T17:41:50.602Z,79.75
2023-01-10T17:43:55.010Z,80.67
2023-01-10T17:45:59.737Z,80.61
2023-01-10T17:48:02.844Z,81.63
2023-01-10T17:50:06.399Z,81.08
2023-01-10T17:52:09.420Z,81.15
2023-01-10T17:54:14.395Z,81.21
2023-01-10T17:56:17.545Z,82.28
2023-01-10T17:58:21.290Z,82.14
2023-01-10T18:00:27.106Z,81.53
2023-01-10T18:02:30.272Z,82.25
2023-01-10T18:04:33.409Z,82.59
2023-01-10T18:06:36.526Z,82.29
2023-01-10T18:08:39.530Z,81.52
2023-01-10T18:10:42.565Z,81.79
2023-01-10T18:12:45.697Z,81.84
2023-01-10T18:14:49.766Z,82.19
2023-01-10T18:16:54.260Z,83.60
2023-01-10T18:18:57.352Z,82.93
2023-01-10T18:21:02.353Z,83.08
2023-01-10T18:23:24.837Z,83.28
2023-01-10T18:25:28.952Z,81.76
2023-01-10T18:27:32.064Z,82.16
2023-01-10T18:29:35.131Z,83.32
2023-01-10T18:31:39.212Z,82.10
2023-01-10T18:33:44.535Z,82.48
2023-01-10T18:35:48.806Z,83.31
2023-01-10T18:37:52.123Z,82.63
2023-01-10T18:39:55.148Z,82.37
2023-01-10T18:41:58.320Z,81.80
2023-01-10T18:44:01.655Z,81.87
2023-01-10T18:46:06.581Z,81.99
2023-01-10T18:48:09.866Z,82.99
2023-01-10T18:50:14.429Z,81.79
2023-01-10T18:52:17.531Z,81.14
2023-01-10T18:54:20.670Z,80.65
2023-01-10T18:56:23.778Z,81.36
2023-01-10T18:58:28.334Z,81.09
2023-01-10T19:00:31.491Z,80.65
2023-01-10T19:02:34.501Z,80.08
2023-01-10T19:04:37.567Z,79.36
2023-01-10T19:06:44.274Z,80.42
2023-01-10T19:08:47.911Z,80.06
2023-01-10T19:11:11.744Z,81.57
2023-01-10T19:13:14.040Z,81.50
2023-01-10T19:15:17.199Z,80.37
2023-01-10T19:17:22.233Z,81.88
2023-01-10T19:19:25.321Z,81.04
2023-01-10T19:21:30.384Z,80.58
2023-01-10T19:23:34.951Z,80.60
2023-01-10T19:25:38.265Z,79.61
2023-01-10T19:27:41.851Z,79.36
2023-01-10T19:29:46.142Z,79.42
2023-01-10T19:31:50.110Z,79.26
2023-01-10T19:33:53.691Z,80.10
2023-01-10T19:35:56.867Z,79.11
2023-01-10T19:37:59.850Z,79.27
2023-01-10T19:40:07.289Z,80.16
2023-01-10T19:42:10.585Z,80.48
2023-01-10T19:44:15.843Z,80.17
2023-01-10T19:46:18.854Z,80.89
2023-01-10T19:48:22.422Z,79.60
2023-01-10T19:50:25.494Z,80.10
2023-01-10T19:52:28.983Z,78.32
2023-01-10T19:54:32.438Z,79.10
2023-01-10T19:56:37.091Z,79.38
2023-01-10T19:58:40.240Z,79.80
2023-01-10T20:00:43.196Z,79.23
2023-01-10T20:02:46.298Z,79.05
2023-01-10T20:04:49.329Z,78.93
2023-01-10T20:06:52.402Z,79.80
2023-01-10T20:08:56.032Z,78.80
2023-01-10T20:11:04.318Z,78.51
2023-01-10T20:13:10.312Z,80.26
2023-01-10T20:15:13.671Z,80.32
2023-01-10T20:17:16.731Z,79.09
2023-01-10T20:19:21.393Z,79.99
2023-01-10T20:21:24.483Z,80.51
2023-01-10T20:23:27.556Z,79.90
2023-01-10T20:25:30.612Z,79.18
2023-01-10T20:27:33.984Z,78.66
2023-01-10T20:29:38.906Z,78.27
2023-01-10T20:31:42.859Z,79.42
2023-01-10T20:33:45.957Z,78.64
2023-01-10T20:35:56.840Z,77.34
2023-01-10T20:37:59.900Z,78.01
2023-01-10T20:40:02.993Z,78.89
2023-01-10T20:42:06.122Z,80.82
2023-01-10T20:44:09.126Z,81.49
2023-01-10T20:46:14.627Z,81.31
2023-01-10T20:48:17.768Z,81.97
2023-01-10T20:50:20.843Z,83.45
2023-01-10T20:52:23.957Z,85.08
2023-01-10T20:54:26.983Z,84.24
2023-01-10T20:56:31.607Z,84.84
2023-01-10T20:58:35.052Z,84.65
2023-01-10T21:00:40.990Z,84.88
2023-01-10T21:02:45.474Z,83.99
2023-01-10T21:04:51.438Z,84.15
2023-01-10T21:06:54.860Z,82.25
2023-01-10T21:08:57.903Z,81.68
2023-01-10T21:11:00.908Z,81.55
2023-01-10T21:13:03.971Z,80.93
2023-01-10T21:15:07.943Z,79.89
2023-01-10T21:17:11.059Z,79.78
2023-01-10T21:19:16.781Z,81.62
2023-01-10T21:21:24.648Z,80.90
2023-01-10T21:23:29.127Z,80.56
2023-01-10T21:25:32.228Z,80.46
2023-01-10T21:27:35.259Z,79.92
2023-01-10T21:29:38.520Z,79.91
2023-01-10T21:31:41.671Z,80.27
2023-01-10T21:33:45.057Z,79.99
2023-01-10T21:35:53.726Z,78.74
2023-01-10T21:37:57.606Z,80.80
2023-01-10T21:40:01.095Z,80.54
2023-01-10T21:42:21.709Z,79.61
2023-01-10T21:44:26.491Z,79.91
2023-01-10T21:46:29.706Z,80.42
2023-01-10T21:48:32.727Z,79.24
2023-01-10T21:50:35.731Z,80.83
2023-01-10T21:52:40.607Z,80.14
2023-01-10T21:54:43.846Z,79.54
2023-01-10T21:56:46.900Z,80.63
2023-01-10T21:58:50.046Z,79.24
2023-01-10T22:00:56.195Z,81.10
2023-01-10T22:02:59.752Z,81.76
2023-01-10T22:05:03.715Z,80.69
2023-01-10T22:07:06.750Z,80.99
2023-01-10T22:09:11.148Z,83.94
2023-01-10T22:11:14.227Z,84.55
2023-01-10T22:13:17.317Z,87.24
2023-01-10T22:15:20.723Z,85.88
2023-01-10T22:17:24.056Z,86.99
2023-01-10T22:19:27.037Z,86.18
2023-01-10T22:21:30.151Z,87.32
2023-01-10T22:23:33.999Z,86.60
2023-01-10T22:25:38.377Z,87.39
2023-01-10T22:27:44.132Z,88.00
2023-01-10T22:29:48.006Z,88.06
2023-01-10T22:31:51.435Z,89.11
2023-01-10T22:33:54.785Z,87.68
2023-01-10T22:35:58.307Z,89.48
2023-01-10T22:38:01.583Z,88.33
2023-01-10T22:40:05.081Z,90.01
2023-01-10T22:42:09.560Z,90.24
2023-01-10T22:44:18.850Z,89.58
2023-01-10T22:46:21.995Z,91.62
2023-01-10T22:48:25.292Z,91.03
2023-01-10T22:50:28.390Z,91.15
2023-01-10T22:52:31.437Z,91.25
2023-01-10T22:54:34.687Z,91.76
2023-01-10T22:56:38.428Z,92.11
2023-01-10T22:58:47.750Z,92.96
2023-01-10T23:00:50.896Z,93.53
2023-01-10T23:02:54.105Z,93.83
2023-01-10T23:04:57.264Z,93.67
2023-01-10T23:07:00.505Z,94.03
2023-01-10T23:09:03.763Z,94.17
2023-01-10T23:11:07.681Z,93.90
2023-01-10T23:13:10.805Z,94.12
2023-01-10T23:15:15.178Z,94.44
2023-01-10T23:17:18.168Z,93.57
2023-01-10T23:19:21.265Z,93.85
2023-01-10T23:21:24.906Z,93.83
2023-01-10T23:23:28.581Z,94.51
2023-01-10T23:25:31.805Z,94.05
2023-01-10T23:27:34.950Z,94.94
2023-01-10T23:29:38.096Z,94.88
2023-01-10T23:31:42.553Z,94.28
2023-01-10T23:33:45.834Z,93.78
2023-01-10T23:35:48.908Z,94.05
2023-01-10T23:37:52.294Z,95.11
2023-01-10T23:39:55.541Z,95.31
2023-01-10T23:41:58.612Z,94.13
2023-01-10T23:44:01.675Z,94.17
2023-01-10T23:46:04.987Z,94.54
2023-01-10T23:48:09.797Z,94.01
2023-01-10T23:50:13.013Z,94.58
2023-01-10T23:52:16.314Z,94.48
2023-01-10T23:54:19.402Z,94.63
2023-01-10T23:56:22.481Z,94.12
2023-01-10T23:58:25.688Z,94.00
